sensor_id;sensor_type;location;lat;lon;timestamp;P1;durP1;ratioP1;P2;durP2;ratioP2
10617;SDS011;5356;43.526;26.534;2022-07-17T00:00:18;4.80;;;3.97;;
10617;SDS011;5356;43.526;26.534;2022-07-17T00:02:44;4.25;;;3.85;;
10617;SDS011;5356;43.526;26.534;2022-07-17T00:05:09;7.03;;;4.22;;
10617;SDS011;5356;43.526;26.534;2022-07-17T00:07:35;4.40;;;4.00;;
10617;SDS011;5356;43.526;26.534;2022-07-17T00:10:01;4.63;;;4.13;;
10617;SDS011;5356;43.526;26.534;2022-07-17T00:12:27;6.10;;;4.25;;
10617;SDS011;5356;43.526;26.534;2022-07-17T00:14:52;5.30;;;4.13;;
10617;SDS011;5356;43.526;26.534;2022-07-17T00:17:18;6.03;;;4.70;;
10617;SDS011;5356;43.526;26.534;2022-07-17T00:19:43;5.68;;;4.40;;
10617;SDS011;5356;43.526;26.534;2022-07-17T00:22:09;6.32;;;4.28;;
10617;SDS011;5356;43.526;26.534;2022-07-17T00:24:35;7.93;;;3.78;;
10617;SDS011;5356;43.526;26.534;2022-07-17T00:27:00;5.38;;;4.25;;
10617;SDS011;5356;43.526;26.534;2022-07-17T00:29:26;6.18;;;4.43;;
10617;SDS011;5356;43.526;26.534;2022-07-17T00:31:51;4.53;;;4.10;;
10617;SDS011;5356;43.526;26.534;2022-07-17T00:34:17;4.63;;;3.97;;
10617;SDS011;5356;43.526;26.534;2022-07-17T00:36:43;4.28;;;3.55;;
10617;SDS011;5356;43.526;26.534;2022-07-17T00:39:08;5.90;;;4.22;;
10617;SDS011;5356;43.526;26.534;2022-07-17T00:41:34;6.18;;;4.35;;
10617;SDS011;5356;43.526;26.534;2022-07-17T00:44:04;6.22;;;4.22;;
10617;SDS011;5356;43.526;26.534;2022-07-17T00:46:33;5.10;;;4.60;;
10617;SDS011;5356;43.526;26.534;2022-07-17T00:48:59;6.65;;;4.40;;
10617;SDS011;5356;43.526;26.534;2022-07-17T00:51:24;5.43;;;4.30;;
10617;SDS011;5356;43.526;26.534;2022-07-17T00:53:50;5.05;;;4.40;;
10617;SDS011;5356;43.526;26.534;2022-07-17T00:56:17;5.60;;;3.78;;
10617;SDS011;5356;43.526;26.534;2022-07-17T00:58:42;4.65;;;3.95;;
10617;SDS011;5356;43.526;26.534;2022-07-17T01:01:09;4.45;;;4.05;;
10617;SDS011;5356;43.526;26.534;2022-07-17T01:03:35;5.43;;;4.53;;
10617;SDS011;5356;43.526;26.534;2022-07-17T01:06:01;4.30;;;3.83;;
10617;SDS011;5356;43.526;26.534;2022-07-17T01:08:27;5.65;;;3.55;;
10617;SDS011;5356;43.526;26.534;2022-07-17T01:10:53;4.03;;;3.67;;
10617;SDS011;5356;43.526;26.534;2022-07-17T01:13:18;4.95;;;4.05;;
10617;SDS011;5356;43.526;26.534;2022-07-17T01:15:44;4.25;;;3.67;;
10617;SDS011;5356;43.526;26.534;2022-07-17T01:18:11;5.65;;;3.90;;
10617;SDS011;5356;43.526;26.534;2022-07-17T01:20:39;3.90;;;3.50;;
10617;SDS011;5356;43.526;26.534;2022-07-17T01:23:07;5.35;;;4.03;;
10617;SDS011;5356;43.526;26.534;2022-07-17T01:25:33;4.45;;;3.80;;
10617;SDS011;5356;43.526;26.534;2022-07-17T01:27:59;6.03;;;4.07;;
10617;SDS011;5356;43.526;26.534;2022-07-17T01:30:25;4.05;;;3.65;;
10617;SDS011;5356;43.526;26.534;2022-07-17T01:32:51;7.93;;;4.57;;
10617;SDS011;5356;43.526;26.534;2022-07-17T01:35:18;4.38;;;3.97;;
10617;SDS011;5356;43.526;26.534;2022-07-17T01:37:43;5.15;;;4.32;;
10617;SDS011;5356;43.526;26.534;2022-07-17T01:40:10;5.60;;;4.13;;
10617;SDS011;5356;43.526;26.534;2022-07-17T01:42:44;7.55;;;4.13;;
10617;SDS011;5356;43.526;26.534;2022-07-17T01:45:14;4.90;;;3.92;;
10617;SDS011;5356;43.526;26.534;2022-07-17T01:47:41;5.22;;;3.88;;
10617;SDS011;5356;43.526;26.534;2022-07-17T01:50:08;6.55;;;4.05;;
10617;SDS011;5356;43.526;26.534;2022-07-17T01:52:38;5.10;;;4.32;;
10617;SDS011;5356;43.526;26.534;2022-07-17T01:55:06;4.88;;;4.30;;
10617;SDS011;5356;43.526;26.534;2022-07-17T01:57:33;5.57;;;3.58;;
10617;SDS011;5356;43.526;26.534;2022-07-17T01:59:59;4.72;;;3.97;;
10617;SDS011;5356;43.526;26.534;2022-07-17T02:02:25;5.68;;;4.28;;
10617;SDS011;5356;43.526;26.534;2022-07-17T02:04:52;6.32;;;3.78;;
10617;SDS011;5356;43.526;26.534;2022-07-17T02:07:17;5.50;;;3.80;;
10617;SDS011;5356;43.526;26.534;2022-07-17T02:09:42;4.43;;;4.03;;
10617;SDS011;5356;43.526;26.534;2022-07-17T02:12:08;5.78;;;4.05;;
10617;SDS011;5356;43.526;26.534;2022-07-17T02:14:33;4.90;;;4.18;;
10617;SDS011;5356;43.526;26.534;2022-07-17T02:16:59;5.60;;;4.32;;
10617;SDS011;5356;43.526;26.534;2022-07-17T02:19:25;5.80;;;4.30;;
10617;SDS011;5356;43.526;26.534;2022-07-17T02:21:50;5.03;;;4.43;;
10617;SDS011;5356;43.526;26.534;2022-07-17T02:24:16;6.20;;;4.30;;
10617;SDS011;5356;43.526;26.534;2022-07-17T02:26:41;5.78;;;4.40;;
10617;SDS011;5356;43.526;26.534;2022-07-17T02:29:07;5.40;;;4.38;;
10617;SDS011;5356;43.526;26.534;2022-07-17T02:31:32;7.25;;;4.18;;
10617;SDS011;5356;43.526;26.534;2022-07-17T02:33:58;5.00;;;4.50;;
10617;SDS011;5356;43.526;26.534;2022-07-17T02:36:23;7.50;;;4.25;;
10617;SDS011;5356;43.526;26.534;2022-07-17T02:38:49;5.18;;;4.05;;
10617;SDS011;5356;43.526;26.534;2022-07-17T02:41:15;5.93;;;4.25;;
10617;SDS011;5356;43.526;26.534;2022-07-17T02:43:43;5.18;;;4.68;;
10617;SDS011;5356;43.526;26.534;2022-07-17T02:46:09;5.18;;;3.78;;
10617;SDS011;5356;43.526;26.534;2022-07-17T02:48:34;5.00;;;4.45;;
10617;SDS011;5356;43.526;26.534;2022-07-17T02:51:00;5.45;;;4.15;;
10617;SDS011;5356;43.526;26.534;2022-07-17T02:53:26;5.63;;;4.25;;
10617;SDS011;5356;43.526;26.534;2022-07-17T02:55:52;5.47;;;4.43;;
10617;SDS011;5356;43.526;26.534;2022-07-17T02:58:17;4.40;;;3.95;;
10617;SDS011;5356;43.526;26.534;2022-07-17T03:00:42;6.53;;;4.63;;
10617;SDS011;5356;43.526;26.534;2022-07-17T03:03:08;5.35;;;3.95;;
10617;SDS011;5356;43.526;26.534;2022-07-17T03:05:33;5.05;;;4.38;;
10617;SDS011;5356;43.526;26.534;2022-07-17T03:07:59;4.50;;;4.07;;
10617;SDS011;5356;43.526;26.534;2022-07-17T03:10:25;5.07;;;4.18;;
10617;SDS011;5356;43.526;26.534;2022-07-17T03:12:51;6.13;;;4.20;;
10617;SDS011;5356;43.526;26.534;2022-07-17T03:15:17;5.95;;;4.15;;
10617;SDS011;5356;43.526;26.534;2022-07-17T03:17:42;7.63;;;4.63;;
10617;SDS011;5356;43.526;26.534;2022-07-17T03:20:08;8.23;;;4.30;;
10617;SDS011;5356;43.526;26.534;2022-07-17T03:22:34;4.90;;;4.40;;
10617;SDS011;5356;43.526;26.534;2022-07-17T03:25:00;4.25;;;3.65;;
10617;SDS011;5356;43.526;26.534;2022-07-17T03:27:25;5.95;;;4.13;;
10617;SDS011;5356;43.526;26.534;2022-07-17T03:29:52;5.35;;;4.32;;
10617;SDS011;5356;43.526;26.534;2022-07-17T03:32:19;5.03;;;4.53;;
10617;SDS011;5356;43.526;26.534;2022-07-17T03:34:44;5.97;;;5.35;;
10617;SDS011;5356;43.526;26.534;2022-07-17T03:37:10;5.05;;;3.80;;
10617;SDS011;5356;43.526;26.534;2022-07-17T03:39:35;7.47;;;4.75;;
10617;SDS011;5356;43.526;26.534;2022-07-17T03:42:01;5.15;;;3.95;;
10617;SDS011;5356;43.526;26.534;2022-07-17T03:44:26;8.38;;;4.95;;
10617;SDS011;5356;43.526;26.534;2022-07-17T03:46:52;5.47;;;4.60;;
10617;SDS011;5356;43.526;26.534;2022-07-17T03:49:17;5.95;;;5.03;;
10617;SDS011;5356;43.526;26.534;2022-07-17T03:51:43;7.07;;;4.82;;
10617;SDS011;5356;43.526;26.534;2022-07-17T03:54:08;6.15;;;4.80;;
10617;SDS011;5356;43.526;26.534;2022-07-17T03:56:34;6.30;;;4.75;;
10617;SDS011;5356;43.526;26.534;2022-07-17T03:58:59;9.10;;;5.18;;
10617;SDS011;5356;43.526;26.534;2022-07-17T04:01:25;7.30;;;5.70;;
10617;SDS011;5356;43.526;26.534;2022-07-17T04:03:50;5.43;;;4.82;;
10617;SDS011;5356;43.526;26.534;2022-07-17T04:06:16;9.60;;;5.65;;
10617;SDS011;5356;43.526;26.534;2022-07-17T04:08:42;7.60;;;4.93;;
10617;SDS011;5356;43.526;26.534;2022-07-17T04:11:07;7.43;;;5.78;;
10617;SDS011;5356;43.526;26.534;2022-07-17T04:13:33;7.55;;;5.70;;
10617;SDS011;5356;43.526;26.534;2022-07-17T04:15:58;8.48;;;4.82;;
10617;SDS011;5356;43.526;26.534;2022-07-17T04:18:29;7.93;;;4.90;;
10617;SDS011;5356;43.526;26.534;2022-07-17T04:20:58;7.03;;;5.10;;
10617;SDS011;5356;43.526;26.534;2022-07-17T04:23:27;4.70;;;4.10;;
10617;SDS011;5356;43.526;26.534;2022-07-17T04:25:53;4.60;;;4.20;;
10617;SDS011;5356;43.526;26.534;2022-07-17T04:28:19;5.05;;;4.32;;
10617;SDS011;5356;43.526;26.534;2022-07-17T04:30:45;5.30;;;3.97;;
10617;SDS011;5356;43.526;26.534;2022-07-17T04:33:11;7.72;;;4.53;;
10617;SDS011;5356;43.526;26.534;2022-07-17T04:35:36;5.78;;;4.38;;
10617;SDS011;5356;43.526;26.534;2022-07-17T04:38:03;6.82;;;4.40;;
10617;SDS011;5356;43.526;26.534;2022-07-17T04:40:30;9.52;;;4.38;;
10617;SDS011;5356;43.526;26.534;2022-07-17T04:42:56;4.13;;;3.65;;
10617;SDS011;5356;43.526;26.534;2022-07-17T04:45:21;5.15;;;4.03;;
10617;SDS011;5356;43.526;26.534;2022-07-17T04:47:47;6.50;;;4.20;;
10617;SDS011;5356;43.526;26.534;2022-07-17T04:50:12;4.45;;;3.53;;
10617;SDS011;5356;43.526;26.534;2022-07-17T04:52:38;4.85;;;3.92;;
10617;SDS011;5356;43.526;26.534;2022-07-17T04:55:03;4.70;;;3.95;;
10617;SDS011;5356;43.526;26.534;2022-07-17T04:57:29;5.47;;;3.95;;
10617;SDS011;5356;43.526;26.534;2022-07-17T04:59:55;5.03;;;3.45;;
10617;SDS011;5356;43.526;26.534;2022-07-17T05:02:20;5.47;;;3.85;;
10617;SDS011;5356;43.526;26.534;2022-07-17T05:04:45;5.05;;;4.00;;
10617;SDS011;5356;43.526;26.534;2022-07-17T05:07:12;4.07;;;3.40;;
10617;SDS011;5356;43.526;26.534;2022-07-17T05:09:38;5.97;;;3.85;;
10617;SDS011;5356;43.526;26.534;2022-07-17T05:12:03;4.32;;;3.22;;
10617;SDS011;5356;43.526;26.534;2022-07-17T05:14:29;3.53;;;3.10;;
10617;SDS011;5356;43.526;26.534;2022-07-17T05:16:55;6.35;;;3.38;;
10617;SDS011;5356;43.526;26.534;2022-07-17T05:19:20;5.55;;;3.92;;
10617;SDS011;5356;43.526;26.534;2022-07-17T05:21:48;5.18;;;3.70;;
10617;SDS011;5356;43.526;26.534;2022-07-17T05:24:13;6.47;;;3.70;;
10617;SDS011;5356;43.526;26.534;2022-07-17T05:26:38;3.97;;;3.58;;
10617;SDS011;5356;43.526;26.534;2022-07-17T05:29:04;4.93;;;3.50;;
10617;SDS011;5356;43.526;26.534;2022-07-17T05:31:29;4.80;;;3.30;;
10617;SDS011;5356;43.526;26.534;2022-07-17T05:33:55;3.70;;;3.38;;
10617;SDS011;5356;43.526;26.534;2022-07-17T05:36:20;5.25;;;3.60;;
10617;SDS011;5356;43.526;26.534;2022-07-17T05:38:46;3.40;;;3.10;;
10617;SDS011;5356;43.526;26.534;2022-07-17T05:41:11;4.50;;;3.42;;
10617;SDS011;5356;43.526;26.534;2022-07-17T05:43:37;4.50;;;3.83;;
10617;SDS011;5356;43.526;26.534;2022-07-17T05:46:02;5.93;;;3.72;;
10617;SDS011;5356;43.526;26.534;2022-07-17T05:48:29;4.72;;;3.75;;
10617;SDS011;5356;43.526;26.534;2022-07-17T05:50:55;5.35;;;3.53;;
10617;SDS011;5356;43.526;26.534;2022-07-17T05:53:21;4.43;;;3.92;;
10617;SDS011;5356;43.526;26.534;2022-07-17T05:55:46;4.68;;;3.40;;
10617;SDS011;5356;43.526;26.534;2022-07-17T05:58:12;4.47;;;3.25;;
10617;SDS011;5356;43.526;26.534;2022-07-17T06:00:38;3.47;;;3.17;;
10617;SDS011;5356;43.526;26.534;2022-07-17T06:03:03;5.13;;;3.50;;
10617;SDS011;5356;43.526;26.534;2022-07-17T06:05:29;4.00;;;3.08;;
10617;SDS011;5356;43.526;26.534;2022-07-17T06:07:55;3.60;;;3.00;;
10617;SDS011;5356;43.526;26.534;2022-07-17T06:10:22;3.78;;;3.40;;
10617;SDS011;5356;43.526;26.534;2022-07-17T06:12:49;4.82;;;3.35;;
10617;SDS011;5356;43.526;26.534;2022-07-17T06:15:14;6.63;;;3.63;;
10617;SDS011;5356;43.526;26.534;2022-07-17T06:17:40;4.28;;;3.05;;
10617;SDS011;5356;43.526;26.534;2022-07-17T06:20:06;4.40;;;3.30;;
10617;SDS011;5356;43.526;26.534;2022-07-17T06:22:32;3.08;;;2.83;;
10617;SDS011;5356;43.526;26.534;2022-07-17T06:24:57;5.45;;;3.22;;
10617;SDS011;5356;43.526;26.534;2022-07-17T06:27:23;3.35;;;3.03;;
10617;SDS011;5356;43.526;26.534;2022-07-17T06:29:49;3.55;;;3.22;;
10617;SDS011;5356;43.526;26.534;2022-07-17T06:32:14;3.55;;;2.97;;
10617;SDS011;5356;43.526;26.534;2022-07-17T06:34:40;2.85;;;2.58;;
10617;SDS011;5356;43.526;26.534;2022-07-17T06:37:06;5.45;;;3.10;;
10617;SDS011;5356;43.526;26.534;2022-07-17T06:39:31;3.25;;;2.88;;
10617;SDS011;5356;43.526;26.534;2022-07-17T06:41:57;4.32;;;3.40;;
10617;SDS011;5356;43.526;26.534;2022-07-17T06:44:23;4.97;;;3.30;;
10617;SDS011;5356;43.526;26.534;2022-07-17T06:46:48;6.38;;;3.22;;
10617;SDS011;5356;43.526;26.534;2022-07-17T06:49:14;4.22;;;3.20;;
10617;SDS011;5356;43.526;26.534;2022-07-17T06:51:39;4.68;;;3.40;;
10617;SDS011;5356;43.526;26.534;2022-07-17T06:54:05;4.15;;;3.42;;
10617;SDS011;5356;43.526;26.534;2022-07-17T06:56:31;4.82;;;3.10;;
10617;SDS011;5356;43.526;26.534;2022-07-17T06:58:56;3.30;;;2.83;;
10617;SDS011;5356;43.526;26.534;2022-07-17T07:01:22;3.28;;;2.90;;
10617;SDS011;5356;43.526;26.534;2022-07-17T07:03:47;4.63;;;2.97;;
10617;SDS011;5356;43.526;26.534;2022-07-17T07:06:13;4.65;;;3.03;;
10617;SDS011;5356;43.526;26.534;2022-07-17T07:08:38;3.13;;;2.83;;
10617;SDS011;5356;43.526;26.534;2022-07-17T07:11:04;2.95;;;2.65;;
10617;SDS011;5356;43.526;26.534;2022-07-17T07:13:30;4.38;;;3.20;;
10617;SDS011;5356;43.526;26.534;2022-07-17T07:15:55;3.08;;;2.50;;
10617;SDS011;5356;43.526;26.534;2022-07-17T07:18:21;2.97;;;2.47;;
10617;SDS011;5356;43.526;26.534;2022-07-17T07:20:47;3.15;;;2.35;;
10617;SDS011;5356;43.526;26.534;2022-07-17T07:23:12;5.45;;;3.90;;
10617;SDS011;5356;43.526;26.534;2022-07-17T07:25:38;6.18;;;2.97;;
10617;SDS011;5356;43.526;26.534;2022-07-17T07:28:03;3.50;;;2.40;;
10617;SDS011;5356;43.526;26.534;2022-07-17T07:30:30;2.70;;;2.40;;
10617;SDS011;5356;43.526;26.534;2022-07-17T07:32:55;4.82;;;2.80;;
10617;SDS011;5356;43.526;26.534;2022-07-17T07:35:21;2.47;;;2.28;;
10617;SDS011;5356;43.526;26.534;2022-07-17T07:37:47;3.30;;;2.58;;
10617;SDS011;5356;43.526;26.534;2022-07-17T07:40:13;3.50;;;2.85;;
10617;SDS011;5356;43.526;26.534;2022-07-17T07:42:38;4.13;;;2.80;;
10617;SDS011;5356;43.526;26.534;2022-07-17T07:45:04;2.95;;;2.67;;
10617;SDS011;5356;43.526;26.534;2022-07-17T07:47:30;4.88;;;2.90;;
10617;SDS011;5356;43.526;26.534;2022-07-17T07:49:55;3.40;;;2.83;;
10617;SDS011;5356;43.526;26.534;2022-07-17T07:52:21;3.13;;;2.83;;
10617;SDS011;5356;43.526;26.534;2022-07-17T07:54:46;3.47;;;2.63;;
10617;SDS011;5356;43.526;26.534;2022-07-17T07:57:12;3.78;;;2.70;;
10617;SDS011;5356;43.526;26.534;2022-07-17T07:59:37;5.45;;;3.45;;
10617;SDS011;5356;43.526;26.534;2022-07-17T08:02:03;5.00;;;2.67;;
10617;SDS011;5356;43.526;26.534;2022-07-17T08:04:29;3.20;;;2.63;;
10617;SDS011;5356;43.526;26.534;2022-07-17T08:06:54;2.90;;;2.60;;
10617;SDS011;5356;43.526;26.534;2022-07-17T08:09:20;3.00;;;2.67;;
10617;SDS011;5356;43.526;26.534;2022-07-17T08:11:46;3.85;;;2.67;;
10617;SDS011;5356;43.526;26.534;2022-07-17T08:14:11;3.47;;;2.70;;
10617;SDS011;5356;43.526;26.534;2022-07-17T08:16:36;3.97;;;2.92;;
10617;SDS011;5356;43.526;26.534;2022-07-17T08:19:02;4.45;;;2.60;;
10617;SDS011;5356;43.526;26.534;2022-07-17T08:21:28;3.78;;;2.55;;
10617;SDS011;5356;43.526;26.534;2022-07-17T08:23:53;2.70;;;2.50;;
10617;SDS011;5356;43.526;26.534;2022-07-17T08:26:19;5.47;;;2.83;;
10617;SDS011;5356;43.526;26.534;2022-07-17T08:28:45;4.72;;;2.80;;
10617;SDS011;5356;43.526;26.534;2022-07-17T08:31:11;4.38;;;2.63;;
10617;SDS011;5356;43.526;26.534;2022-07-17T08:33:37;3.97;;;2.80;;
10617;SDS011;5356;43.526;26.534;2022-07-17T08:36:03;3.15;;;2.20;;
10617;SDS011;5356;43.526;26.534;2022-07-17T08:38:28;2.85;;;2.50;;
10617;SDS011;5356;43.526;26.534;2022-07-17T08:40:54;5.85;;;2.80;;
10617;SDS011;5356;43.526;26.534;2022-07-17T08:43:20;5.90;;;3.58;;
10617;SDS011;5356;43.526;26.534;2022-07-17T08:45:46;3.75;;;2.30;;
10617;SDS011;5356;43.526;26.534;2022-07-17T08:48:14;5.25;;;2.47;;
10617;SDS011;5356;43.526;26.534;2022-07-17T08:50:41;3.88;;;3.22;;
10617;SDS011;5356;43.526;26.534;2022-07-17T08:53:07;4.82;;;2.80;;
10617;SDS011;5356;43.526;26.534;2022-07-17T08:55:34;2.72;;;2.53;;
10617;SDS011;5356;43.526;26.534;2022-07-17T08:58:00;3.33;;;2.60;;
10617;SDS011;5356;43.526;26.534;2022-07-17T09:00:26;3.63;;;2.95;;
10617;SDS011;5356;43.526;26.534;2022-07-17T09:02:54;3.20;;;2.88;;
10617;SDS011;5356;43.526;26.534;2022-07-17T09:05:28;2.70;;;2.50;;
10617;SDS011;5356;43.526;26.534;2022-07-17T09:07:56;4.80;;;2.75;;
10617;SDS011;5356;43.526;26.534;2022-07-17T09:13:13;4.07;;;2.58;;
10617;SDS011;5356;43.526;26.534;2022-07-17T09:15:48;3.28;;;2.50;;
10617;SDS011;5356;43.526;26.534;2022-07-17T09:18:15;2.40;;;2.20;;
10617;SDS011;5356;43.526;26.534;2022-07-17T09:21:16;6.95;;;2.80;;
10617;SDS011;5356;43.526;26.534;2022-07-17T09:23:41;2.35;;;2.13;;
10617;SDS011;5356;43.526;26.534;2022-07-17T09:26:06;3.67;;;2.20;;
10617;SDS011;5356;43.526;26.534;2022-07-17T09:28:32;3.70;;;2.22;;
10617;SDS011;5356;43.526;26.534;2022-07-17T09:31:08;4.03;;;2.40;;
10617;SDS011;5356;43.526;26.534;2022-07-17T09:33:34;3.63;;;2.13;;
10617;SDS011;5356;43.526;26.534;2022-07-17T09:36:09;2.92;;;2.70;;
10617;SDS011;5356;43.526;26.534;2022-07-17T09:38:38;3.13;;;2.20;;
10617;SDS011;5356;43.526;26.534;2022-07-17T09:46:09;2.47;;;2.03;;
10617;SDS011;5356;43.526;26.534;2022-07-17T09:48:41;3.42;;;2.25;;
10617;SDS011;5356;43.526;26.534;2022-07-17T09:51:13;3.15;;;2.25;;
10617;SDS011;5356;43.526;26.534;2022-07-17T09:53:41;2.92;;;2.00;;
10617;SDS011;5356;43.526;26.534;2022-07-17T09:56:09;2.33;;;2.10;;
10617;SDS011;5356;43.526;26.534;2022-07-17T09:58:36;3.83;;;2.50;;
10617;SDS011;5356;43.526;26.534;2022-07-17T10:01:07;3.10;;;2.88;;
10617;SDS011;5356;43.526;26.534;2022-07-17T10:03:33;3.35;;;2.70;;
10617;SDS011;5356;43.526;26.534;2022-07-17T10:05:59;3.08;;;2.47;;
10617;SDS011;5356;43.526;26.534;2022-07-17T10:08:26;3.28;;;2.53;;
10617;SDS011;5356;43.526;26.534;2022-07-17T10:10:52;5.10;;;2.92;;
10617;SDS011;5356;43.526;26.534;2022-07-17T10:13:17;3.10;;;2.03;;
10617;SDS011;5356;43.526;26.534;2022-07-17T10:15:44;2.80;;;2.20;;
10617;SDS011;5356;43.526;26.534;2022-07-17T10:18:10;2.60;;;2.40;;
10617;SDS011;5356;43.526;26.534;2022-07-17T10:20:35;2.35;;;1.83;;
10617;SDS011;5356;43.526;26.534;2022-07-17T10:23:10;2.88;;;1.90;;
10617;SDS011;5356;43.526;26.534;2022-07-17T10:25:37;2.92;;;2.20;;
10617;SDS011;5356;43.526;26.534;2022-07-17T10:28:03;3.58;;;2.38;;
10617;SDS011;5356;43.526;26.534;2022-07-17T10:30:29;4.88;;;1.80;;
10617;SDS011;5356;43.526;26.534;2022-07-17T10:33:05;3.38;;;2.40;;
10617;SDS011;5356;43.526;26.534;2022-07-17T10:35:40;2.40;;;2.20;;
10617;SDS011;5356;43.526;26.534;2022-07-17T10:38:12;4.63;;;1.90;;
10617;SDS011;5356;43.526;26.534;2022-07-17T10:40:39;3.53;;;1.95;;
10617;SDS011;5356;43.526;26.534;2022-07-17T10:43:05;2.47;;;1.92;;
10617;SDS011;5356;43.526;26.534;2022-07-17T10:45:32;3.90;;;2.03;;
10617;SDS011;5356;43.526;26.534;2022-07-17T10:48:10;2.90;;;2.00;;
10617;SDS011;5356;43.526;26.534;2022-07-17T10:50:37;3.63;;;2.33;;
10617;SDS011;5356;43.526;26.534;2022-07-17T10:53:15;3.05;;;2.15;;
10617;SDS011;5356;43.526;26.534;2022-07-17T10:55:43;2.05;;;1.85;;
10617;SDS011;5356;43.526;26.534;2022-07-17T10:58:44;6.10;;;2.30;;
10617;SDS011;5356;43.526;26.534;2022-07-17T11:03:38;3.08;;;2.55;;
10617;SDS011;5356;43.526;26.534;2022-07-17T11:06:08;3.33;;;2.22;;
10617;SDS011;5356;43.526;26.534;2022-07-17T11:09:28;2.63;;;1.90;;
10617;SDS011;5356;43.526;26.534;2022-07-17T11:11:50;2.08;;;1.88;;
10617;SDS011;5356;43.526;26.534;2022-07-17T11:14:17;6.85;;;2.33;;
10617;SDS011;5356;43.526;26.534;2022-07-17T11:19:36;2.60;;;2.20;;
10617;SDS011;5356;43.526;26.534;2022-07-17T11:22:07;5.35;;;4.85;;
10617;SDS011;5356;43.526;26.534;2022-07-17T11:27:11;3.13;;;2.20;;
10617;SDS011;5356;43.526;26.534;2022-07-17T11:29:43;2.22;;;1.75;;
10617;SDS011;5356;43.526;26.534;2022-07-17T11:32:08;2.80;;;1.95;;
10617;SDS011;5356;43.526;26.534;2022-07-17T11:34:34;3.30;;;2.30;;
10617;SDS011;5356;43.526;26.534;2022-07-17T11:37:00;2.40;;;2.20;;
10617;SDS011;5356;43.526;26.534;2022-07-17T11:39:37;2.28;;;2.08;;
10617;SDS011;5356;43.526;26.534;2022-07-17T11:42:04;3.20;;;2.30;;
10617;SDS011;5356;43.526;26.534;2022-07-17T11:44:33;3.05;;;2.17;;
10617;SDS011;5356;43.526;26.534;2022-07-17T11:46:58;5.80;;;2.33;;
10617;SDS011;5356;43.526;26.534;2022-07-17T11:49:28;2.92;;;1.83;;
10617;SDS011;5356;43.526;26.534;2022-07-17T11:52:07;5.75;;;2.72;;
10617;SDS011;5356;43.526;26.534;2022-07-17T11:54:47;2.85;;;2.35;;
10617;SDS011;5356;43.526;26.534;2022-07-17T11:57:19;2.30;;;2.10;;
10617;SDS011;5356;43.526;26.534;2022-07-17T11:59:46;3.55;;;2.10;;
10617;SDS011;5356;43.526;26.534;2022-07-17T12:02:16;2.35;;;2.15;;
10617;SDS011;5356;43.526;26.534;2022-07-17T12:04:50;3.72;;;2.25;;
10617;SDS011;5356;43.526;26.534;2022-07-17T12:07:26;1.90;;;1.73;;
10617;SDS011;5356;43.526;26.534;2022-07-17T12:10:15;2.60;;;2.25;;
10617;SDS011;5356;43.526;26.534;2022-07-17T12:12:53;4.47;;;2.38;;
10617;SDS011;5356;43.526;26.534;2022-07-17T12:15:21;2.03;;;1.83;;
10617;SDS011;5356;43.526;26.534;2022-07-17T12:17:58;2.25;;;2.03;;
10617;SDS011;5356;43.526;26.534;2022-07-17T12:20:24;4.00;;;2.17;;
10617;SDS011;5356;43.526;26.534;2022-07-17T12:22:50;2.42;;;2.15;;
10617;SDS011;5356;43.526;26.534;2022-07-17T12:25:27;2.92;;;2.03;;
10617;SDS011;5356;43.526;26.534;2022-07-17T12:27:53;2.85;;;2.10;;
10617;SDS011;5356;43.526;26.534;2022-07-17T12:30:19;2.38;;;2.00;;
10617;SDS011;5356;43.526;26.534;2022-07-17T12:32:46;2.30;;;1.90;;
10617;SDS011;5356;43.526;26.534;2022-07-17T12:35:13;6.65;;;2.20;;
10617;SDS011;5356;43.526;26.534;2022-07-17T12:37:40;3.28;;;2.63;;
10617;SDS011;5356;43.526;26.534;2022-07-17T12:40:06;4.82;;;2.50;;
10617;SDS011;5356;43.526;26.534;2022-07-17T12:42:32;3.15;;;2.30;;
10617;SDS011;5356;43.526;26.534;2022-07-17T12:44:57;2.60;;;2.28;;
10617;SDS011;5356;43.526;26.534;2022-07-17T12:47:23;3.20;;;2.08;;
10617;SDS011;5356;43.526;26.534;2022-07-17T12:49:48;4.60;;;2.20;;
10617;SDS011;5356;43.526;26.534;2022-07-17T12:52:14;2.00;;;1.90;;
10617;SDS011;5356;43.526;26.534;2022-07-17T12:54:39;2.40;;;2.08;;
10617;SDS011;5356;43.526;26.534;2022-07-17T12:57:05;4.88;;;2.75;;
10617;SDS011;5356;43.526;26.534;2022-07-17T12:59:32;2.47;;;2.10;;
10617;SDS011;5356;43.526;26.534;2022-07-17T13:01:58;3.38;;;2.13;;
10617;SDS011;5356;43.526;26.534;2022-07-17T13:04:24;4.43;;;3.42;;
10617;SDS011;5356;43.526;26.534;2022-07-17T13:06:50;4.90;;;3.20;;
10617;SDS011;5356;43.526;26.534;2022-07-17T13:09:15;6.30;;;2.30;;
10617;SDS011;5356;43.526;26.534;2022-07-17T13:11:41;2.42;;;2.22;;
10617;SDS011;5356;43.526;26.534;2022-07-17T13:14:07;3.05;;;2.20;;
10617;SDS011;5356;43.526;26.534;2022-07-17T13:16:37;3.10;;;2.10;;
10617;SDS011;5356;43.526;26.534;2022-07-17T13:19:06;2.75;;;1.95;;
10617;SDS011;5356;43.526;26.534;2022-07-17T13:21:32;3.47;;;2.10;;
10617;SDS011;5356;43.526;26.534;2022-07-17T13:23:58;2.67;;;1.75;;
10617;SDS011;5356;43.526;26.534;2022-07-17T13:26:23;7.18;;;2.08;;
10617;SDS011;5356;43.526;26.534;2022-07-17T13:28:48;2.72;;;2.03;;
10617;SDS011;5356;43.526;26.534;2022-07-17T13:31:14;2.75;;;2.10;;
10617;SDS011;5356;43.526;26.534;2022-07-17T13:33:40;4.25;;;1.98;;
10617;SDS011;5356;43.526;26.534;2022-07-17T13:36:06;3.75;;;2.28;;
10617;SDS011;5356;43.526;26.534;2022-07-17T13:38:31;3.55;;;2.30;;
10617;SDS011;5356;43.526;26.534;2022-07-17T13:40:57;2.30;;;2.10;;
10617;SDS011;5356;43.526;26.534;2022-07-17T13:43:22;3.28;;;1.80;;
10617;SDS011;5356;43.526;26.534;2022-07-17T13:45:48;2.13;;;1.92;;
10617;SDS011;5356;43.526;26.534;2022-07-17T13:48:13;2.60;;;2.08;;
10617;SDS011;5356;43.526;26.534;2022-07-17T13:50:40;2.25;;;1.90;;
10617;SDS011;5356;43.526;26.534;2022-07-17T13:53:06;1.80;;;1.70;;
10617;SDS011;5356;43.526;26.534;2022-07-17T13:55:32;3.08;;;2.20;;
10617;SDS011;5356;43.526;26.534;2022-07-17T13:57:57;2.40;;;2.15;;
10617;SDS011;5356;43.526;26.534;2022-07-17T14:00:23;2.97;;;2.45;;
10617;SDS011;5356;43.526;26.534;2022-07-17T14:02:49;3.33;;;2.25;;
10617;SDS011;5356;43.526;26.534;2022-07-17T14:05:14;4.20;;;2.15;;
10617;SDS011;5356;43.526;26.534;2022-07-17T14:07:40;2.75;;;2.20;;
10617;SDS011;5356;43.526;26.534;2022-07-17T14:10:05;3.08;;;2.38;;
10617;SDS011;5356;43.526;26.534;2022-07-17T14:12:31;3.63;;;2.35;;
10617;SDS011;5356;43.526;26.534;2022-07-17T14:14:57;2.42;;;2.20;;
10617;SDS011;5356;43.526;26.534;2022-07-17T14:17:23;4.00;;;2.08;;
10617;SDS011;5356;43.526;26.534;2022-07-17T14:19:48;4.20;;;2.30;;
10617;SDS011;5356;43.526;26.534;2022-07-17T14:22:14;2.95;;;2.20;;
10617;SDS011;5356;43.526;26.534;2022-07-17T14:24:39;3.70;;;2.63;;
10617;SDS011;5356;43.526;26.534;2022-07-17T14:27:04;2.60;;;2.40;;
10617;SDS011;5356;43.526;26.534;2022-07-17T14:29:30;3.38;;;2.30;;
10617;SDS011;5356;43.526;26.534;2022-07-17T14:31:55;3.78;;;2.10;;
10617;SDS011;5356;43.526;26.534;2022-07-17T14:34:21;2.55;;;2.28;;
10617;SDS011;5356;43.526;26.534;2022-07-17T14:36:47;4.50;;;2.40;;
10617;SDS011;5356;43.526;26.534;2022-07-17T14:39:12;8.25;;;2.30;;
10617;SDS011;5356;43.526;26.534;2022-07-17T14:41:39;4.18;;;2.25;;
10617;SDS011;5356;43.526;26.534;2022-07-17T14:44:05;3.10;;;2.65;;
10617;SDS011;5356;43.526;26.534;2022-07-17T14:46:30;4.38;;;2.83;;
10617;SDS011;5356;43.526;26.534;2022-07-17T14:48:56;3.88;;;3.05;;
10617;SDS011;5356;43.526;26.534;2022-07-17T14:51:22;3.50;;;2.75;;
10617;SDS011;5356;43.526;26.534;2022-07-17T14:53:47;4.55;;;2.80;;
10617;SDS011;5356;43.526;26.534;2022-07-17T14:56:13;3.78;;;2.72;;
10617;SDS011;5356;43.526;26.534;2022-07-17T14:58:38;3.95;;;3.08;;
10617;SDS011;5356;43.526;26.534;2022-07-17T15:01:04;3.55;;;3.20;;